Time;durP1;ratioP1;P1;durP2;ratioP2;P2;SDS_P1;SDS_P2;PMS_P1;PMS_P2;Temp;Humidity;BMP_temperature;BMP_pressure;BME280_temperature;BME280_humidity;BME280_pressure;Samples;Min_cycle;Max_cycle;Signal;HPM_P1;HPM_P2
2022/08/29 00:00:48;;;;;;;5.00;2.35;;;16.60;99.90;;;;;;5030408;28;20037;-49
2022/08/29 00:03:16;;;;;;;5.75;2.42;;;16.60;99.90;;;;;;5030230;28;20077;-49
2022/08/29 00:05:44;;;;;;;8.00;2.67;;;16.60;99.90;;;;;;5027743;28;20120;-49
2022/08/29 00:08:16;;;;;;;4.80;2.30;;;16.50;99.90;;;;;;5030162;28;20049;-48
2022/08/29 00:10:43;;;;;;;3.35;2.45;;;16.50;99.90;;;;;;5030069;28;20099;-50
2022/08/29 00:13:12;;;;;;;6.07;2.25;;;16.50;99.90;;;;;;5029292;28;20374;-50
2022/08/29 00:15:40;;;;;;;2.80;2.30;;;16.50;99.90;;;;;;5030531;28;20033;-55
2022/08/29 00:18:12;;;;;;;4.47;2.33;;;16.60;99.90;;;;;;5054331;28;20044;-51
2022/08/29 00:20:40;;;;;;;3.92;2.47;;;16.50;99.90;;;;;;5052184;28;20037;-50
2022/08/29 00:23:06;;;;;;;;;;;16.40;99.90;;;;;;5033879;28;20049;-50
2022/08/29 00:25:33;;;;;;;2.35;2.00;;;16.30;99.90;;;;;;5032718;28;19925;-52
2022/08/29 00:28:01;;;;;;;6.53;2.83;;;16.30;99.90;;;;;;5033451;28;20095;-50
2022/08/29 00:30:28;;;;;;;;;;;16.20;99.90;;;;;;5024737;28;20095;-49
2022/08/29 00:32:54;;;;;;;3.03;2.13;;;16.20;99.90;;;;;;5032028;28;19974;-50
2022/08/29 00:35:24;;;;;;;7.72;2.63;;;16.20;99.90;;;;;;5033254;28;20040;-51
2022/08/29 00:37:53;;;;;;;4.88;2.60;;;16.10;99.90;;;;;;5027130;28;20418;-50
2022/08/29 00:40:40;;;;;;;3.95;2.38;;;16.10;99.90;;;;;;5032218;28;20056;-49
2022/08/29 00:43:08;;;;;;;6.40;2.55;;;16.00;99.90;;;;;;5034614;28;20102;-49
2022/08/29 00:45:37;;;;;;;3.80;2.63;;;16.00;99.90;;;;;;5052877;28;20041;-53
2022/08/29 00:48:08;;;;;;;4.38;2.55;;;16.00;99.90;;;;;;5052728;28;20047;-53
2022/08/29 00:50:43;;;;;;;8.35;2.45;;;16.00;99.90;;;;;;5044199;28;20049;-49
2022/08/29 00:53:15;;;;;;;5.95;3.10;;;15.90;99.90;;;;;;5031092;28;20532;-51
2022/08/29 00:55:44;;;;;;;3.85;2.40;;;16.00;99.90;;;;;;5032939;28;20033;-49
2022/08/29 00:58:39;;;;;;;5.68;2.70;;;16.00;99.90;;;;;;5031911;28;20490;-50
2022/08/29 01:01:06;;;;;;;3.08;2.40;;;16.00;99.90;;;;;;5033259;28;20044;-53
2022/08/29 01:03:34;;;;;;;9.38;2.50;;;16.00;99.90;;;;;;5031375;28;20449;-50
2022/08/29 01:06:04;;;;;;;4.60;2.65;;;16.00;99.90;;;;;;5031822;28;20052;-52
2022/08/29 01:08:31;;;;;;;8.25;2.38;;;16.00;99.90;;;;;;5032463;28;20041;-50
2022/08/29 01:13:47;;;;;;;3.05;2.50;;;16.00;99.90;;;;;;5032175;28;20045;-49
2022/08/29 01:16:15;;;;;;;3.97;2.67;;;16.00;99.90;;;;;;5033172;28;20046;-50
2022/08/29 01:18:46;;;;;;;4.55;2.63;;;15.90;99.90;;;;;;5029202;28;20076;-53
2022/08/29 01:21:31;;;;;;;2.80;2.17;;;15.80;99.90;;;;;;5032435;28;20064;-53
2022/08/29 01:24:17;;;;;;;6.90;2.60;;;15.70;99.90;;;;;;5032473;28;20429;-53
2022/08/29 01:26:46;;;;;;;4.75;2.38;;;15.70;99.90;;;;;;5023023;28;20495;-49
2022/08/29 01:29:14;;;;;;;2.80;2.22;;;15.70;99.90;;;;;;5047086;28;20036;-51
2022/08/29 01:31:47;;;;;;;3.47;2.60;;;15.70;99.90;;;;;;5052174;28;20053;-51
2022/08/29 01:34:25;;;;;;;4.03;2.33;;;15.60;99.90;;;;;;5052872;28;20413;-49
2022/08/29 01:36:55;;;;;;;2.78;2.30;;;15.60;99.90;;;;;;5048314;28;20379;-52
2022/08/29 01:39:26;;;;;;;4.55;2.58;;;15.50;99.90;;;;;;5052791;28;20040;-50
2022/08/29 01:41:53;;;;;;;4.00;2.45;;;15.60;99.90;;;;;;5052314;28;20041;-50
2022/08/29 01:44:21;;;;;;;3.40;2.47;;;15.50;99.90;;;;;;5050267;28;20053;-53
2022/08/29 01:46:50;;;;;;;3.38;2.30;;;15.50;99.90;;;;;;5041317;28;20048;-49
2022/08/29 01:49:18;;;;;;;3.13;2.35;;;15.50;99.90;;;;;;5052074;28;20056;-49
2022/08/29 01:51:46;;;;;;;2.85;2.13;;;15.50;99.90;;;;;;5051690;28;20052;-50
2022/08/29 01:54:13;;;;;;;;;;;15.50;99.90;;;;;;5026897;28;20053;-49
2022/08/29 01:56:43;;;;;;;5.80;2.65;;;15.50;99.90;;;;;;5031837;28;19932;-49
2022/08/29 01:59:13;;;;;;;2.88;2.55;;;15.40;99.90;;;;;;5032190;28;20468;-51
2022/08/29 02:01:46;;;;;;;4.85;2.78;;;15.40;99.90;;;;;;5035416;28;20574;-54
2022/08/29 02:04:14;;;;;;;6.15;3.15;;;15.50;99.90;;;;;;5051943;28;20456;-53
2022/08/29 02:06:41;;;;;;;4.72;2.45;;;15.40;99.90;;;;;;5051062;28;20045;-51
2022/08/29 02:09:08;;;;;;;2.97;2.22;;;15.50;99.90;;;;;;5033736;28;20053;-52
2022/08/29 02:11:38;;;;;;;4.00;2.60;;;15.50;99.90;;;;;;5029290;28;20046;-51
2022/08/29 02:14:06;;;;;;;3.60;2.55;;;15.50;99.90;;;;;;5023564;28;20076;-54
2022/08/29 02:16:38;;;;;;;3.67;2.65;;;15.50;99.90;;;;;;5027329;28;20124;-53
2022/08/29 02:19:05;;;;;;;5.65;2.95;;;15.50;99.90;;;;;;5032202;28;20383;-50
2022/08/29 02:21:32;;;;;;;3.20;2.50;;;15.50;99.90;;;;;;5030953;28;20103;-51
2022/08/29 02:24:01;;;;;;;4.68;2.35;;;15.50;99.90;;;;;;5031183;28;20049;-50
2022/08/29 02:26:48;;;;;;;5.63;2.47;;;15.50;99.90;;;;;;5029693;28;20041;-50
2022/08/29 02:29:15;;;;;;;5.32;3.17;;;15.50;99.90;;;;;;5031582;28;20103;-53
2022/08/29 02:31:42;;;;;;;4.97;2.65;;;15.50;99.90;;;;;;5031431;28;20452;-54
2022/08/29 02:34:09;;;;;;;;;;;15.40;99.90;;;;;;5030787;28;20045;-52
2022/08/29 02:36:37;;;;;;;4.40;2.53;;;15.50;99.90;;;;;;5028273;28;20337;-54
2022/08/29 02:39:07;;;;;;;4.65;2.50;;;15.40;99.90;;;;;;5051200;28;20037;-51
2022/08/29 02:41:34;;;;;;;2.90;2.33;;;15.40;99.90;;;;;;5040016;28;20044;-53
2022/08/29 02:44:02;;;;;;;3.50;2.40;;;15.40;99.90;;;;;;5031100;28;20050;-51
2022/08/29 02:46:28;;;;;;;7.00;2.72;;;15.40;99.90;;;;;;5030643;28;20042;-52
2022/08/29 02:48:57;;;;;;;3.53;2.63;;;15.40;99.90;;;;;;5029929;28;20049;-50
2022/08/29 02:51:30;;;;;;;3.42;2.38;;;15.40;99.90;;;;;;5021008;28;20107;-50
2022/08/29 02:53:57;;;;;;;3.03;2.28;;;15.30;99.90;;;;;;5030620;28;20041;-51
2022/08/29 02:56:24;;;;;;;;;;;15.40;99.90;;;;;;5031764;28;20088;-51
2022/08/29 02:58:51;;;;;;;3.08;2.13;;;15.40;99.90;;;;;;5023389;28;19928;-51
2022/08/29 03:01:20;;;;;;;6.20;2.40;;;15.40;99.90;;;;;;5031124;28;20045;-51
2022/08/29 03:03:49;;;;;;;5.35;2.45;;;15.40;99.90;;;;;;5030704;28;20073;-51
2022/08/29 03:06:17;;;;;;;3.40;2.38;;;15.30;99.90;;;;;;5027993;28;20054;-49
2022/08/29 03:08:43;;;;;;;3.55;2.20;;;15.30;99.90;;;;;;5023071;28;20064;-51
2022/08/29 03:11:10;;;;;;;4.97;2.50;;;15.30;99.90;;;;;;5030994;28;20060;-51
2022/08/29 03:13:37;;;;;;;7.53;2.55;;;15.30;99.90;;;;;;5030535;28;20045;-50
2022/08/29 03:16:04;;;;;;;4.88;2.50;;;15.40;99.90;;;;;;5031266;28;20037;-53
2022/08/29 03:18:31;;;;;;;;;;;15.30;99.90;;;;;;5027579;28;20041;-50
2022/08/29 03:20:58;;;;;;;3.92;2.58;;;15.40;99.90;;;;;;5030656;28;19921;-53
2022/08/29 03:23:25;;;;;;;3.58;2.63;;;15.40;99.90;;;;;;5030005;28;20076;-53
2022/08/29 03:25:52;;;;;;;5.55;2.60;;;15.40;99.90;;;;;;5014064;28;20379;-54
2022/08/29 03:28:20;;;;;;;4.93;2.95;;;15.40;99.90;;;;;;5026639;28;20042;-50
2022/08/29 03:30:47;;;;;;;;;;;15.40;99.90;;;;;;5028121;28;20048;-51
2022/08/29 03:33:14;;;;;;;2.88;2.00;;;15.40;99.90;;;;;;5030301;28;19925;-53
2022/08/29 03:35:41;;;;;;;5.53;2.20;;;15.40;99.90;;;;;;5026031;28;20437;-53
2022/08/29 03:38:08;;;;;;;3.97;2.60;;;15.40;99.90;;;;;;5027744;28;20038;-50
2022/08/29 03:40:35;;;;;;;2.75;2.22;;;15.40;99.90;;;;;;5020235;28;20050;-51
2022/08/29 03:43:02;;;;;;;3.17;2.38;;;15.40;99.90;;;;;;5011703;28;20050;-50
2022/08/29 03:45:29;;;;;;;4.03;2.25;;;15.40;99.90;;;;;;5020455;28;20512;-52
2022/08/29 03:47:56;;;;;;;6.55;2.30;;;15.40;99.90;;;;;;5031011;28;20042;-51
2022/08/29 03:50:23;;;;;;;3.75;2.15;;;15.30;99.90;;;;;;5028175;28;20045;-54
2022/08/29 03:52:50;;;;;;;6.80;2.60;;;15.20;99.90;;;;;;5033000;28;20083;-51
2022/08/29 03:55:18;;;;;;;3.33;2.63;;;15.20;99.90;;;;;;5031795;28;20045;-52
2022/08/29 03:57:45;;;;;;;2.97;2.25;;;15.20;99.90;;;;;;5013825;28;20045;-50
2022/08/29 04:00:15;;;;;;;3.22;2.17;;;15.10;99.90;;;;;;5022022;28;20033;-53
2022/08/29 04:02:44;;;;;;;3.08;2.42;;;15.10;99.90;;;;;;5033438;28;20045;-50
2022/08/29 04:05:13;;;;;;;3.53;2.58;;;15.10;99.90;;;;;;5033329;28;20054;-51
2022/08/29 04:07:47;;;;;;;5.82;2.50;;;15.10;99.90;;;;;;5033067;28;20041;-53
2022/08/29 04:10:19;;;;;;;6.13;2.67;;;15.10;99.90;;;;;;5034748;28;20048;-50
2022/08/29 04:12:45;;;;;;;3.85;2.55;;;15.00;99.90;;;;;;5039606;28;20042;-53
2022/08/29 04:15:18;;;;;;;3.08;2.47;;;15.00;99.90;;;;;;5031637;28;20049;-52
2022/08/29 04:17:45;;;;;;;3.08;2.40;;;15.00;99.90;;;;;;5025403;28;20105;-51
2022/08/29 04:20:19;;;;;;;4.20;2.88;;;15.00;99.90;;;;;;5032961;28;20671;-49
2022/08/29 04:22:52;;;;;;;5.50;2.30;;;15.00;99.90;;;;;;5034131;28;20049;-53
2022/08/29 04:25:20;;;;;;;3.00;2.33;;;15.00;99.90;;;;;;5019349;28;20402;-50
2022/08/29 04:27:48;;;;;;;5.30;2.50;;;15.10;99.90;;;;;;5034354;28;20042;-52
2022/08/29 04:30:17;;;;;;;2.58;2.10;;;14.90;99.90;;;;;;5022410;28;20045;-51
2022/08/29 04:32:44;;;;;;;3.47;2.75;;;14.90;99.90;;;;;;5025526;28;20041;-50
2022/08/29 04:35:12;;;;;;;4.70;2.65;;;14.90;99.90;;;;;;5024835;28;20038;-52
2022/08/29 04:37:40;;;;;;;5.82;2.50;;;14.90;99.90;;;;;;5020179;28;20037;-51
2022/08/29 04:40:09;;;;;;;5.25;3.10;;;14.90;99.90;;;;;;5023268;28;20741;-51
2022/08/29 04:42:37;;;;;;;3.78;2.60;;;14.90;99.90;;;;;;5022522;28;20471;-52
2022/08/29 04:45:11;;;;;;;4.78;2.55;;;14.90;99.90;;;;;;5021677;28;20057;-51
2022/08/29 04:47:38;;;;;;;4.93;2.67;;;14.90;99.90;;;;;;5020589;28;20046;-52
2022/08/29 04:50:06;;;;;;;3.80;2.13;;;14.90;99.90;;;;;;5023195;28;20042;-51
2022/08/29 04:52:33;;;;;;;7.53;2.47;;;14.90;99.90;;;;;;5024502;28;20052;-52
2022/08/29 04:55:00;;;;;;;5.03;2.60;;;14.90;99.90;;;;;;5017827;28;20044;-52
2022/08/29 04:57:27;;;;;;;4.10;2.58;;;14.90;99.90;;;;;;5022376;28;20033;-54
2022/08/29 04:59:55;;;;;;;3.92;2.42;;;14.80;99.90;;;;;;5021771;28;20045;-51
2022/08/29 05:02:22;;;;;;;4.20;2.40;;;14.80;99.90;;;;;;5035753;28;20041;-53
2022/08/29 05:04:51;;;;;;;3.63;2.38;;;14.70;99.90;;;;;;5052410;28;20080;-51
2022/08/29 05:07:19;;;;;;;3.88;2.58;;;14.70;99.90;;;;;;5052709;28;20040;-53
2022/08/29 05:09:48;;;;;;;3.65;2.65;;;14.80;99.90;;;;;;5037098;28;20041;-50
2022/08/29 05:12:15;;;;;;;3.72;2.78;;;14.80;99.90;;;;;;5053090;28;20037;-50
2022/08/29 05:14:42;;;;;;;7.88;3.45;;;14.80;99.90;;;;;;5052809;28;20041;-53
2022/08/29 05:17:09;;;;;;;4.38;2.90;;;14.90;99.90;;;;;;5052138;28;20565;-52
2022/08/29 05:19:37;;;;;;;7.78;3.33;;;15.00;99.90;;;;;;5028981;28;20408;-51
2022/08/29 05:22:15;;;;;;;3.78;2.47;;;15.00;99.90;;;;;;5029641;28;20041;-50
2022/08/29 05:24:42;;;;;;;7.97;2.90;;;15.10;99.90;;;;;;5030228;28;20046;-52
2022/08/29 05:27:11;;;;;;;3.15;2.45;;;15.10;99.90;;;;;;5030038;28;20123;-51
2022/08/29 05:29:42;;;;;;;3.83;2.55;;;15.10;99.90;;;;;;5030844;28;20053;-50
2022/08/29 05:32:10;;;;;;;4.20;2.40;;;15.10;99.90;;;;;;5038287;28;20460;-53
2022/08/29 05:34:38;;;;;;;4.55;2.47;;;15.10;99.90;;;;;;5051381;28;20049;-52
2022/08/29 05:37:08;;;;;;;5.28;2.70;;;15.10;99.90;;;;;;5026216;28;20049;-50
2022/08/29 05:39:37;;;;;;;6.72;2.63;;;15.20;99.90;;;;;;5025057;28;20064;-52
2022/08/29 05:42:11;;;;;;;2.97;2.17;;;15.30;99.90;;;;;;5038342;23;20103;-52
2022/08/29 05:45:28;;;;;;;5.90;2.35;;;15.40;99.90;;;;;;5021145;28;20498;-51
2022/08/29 05:47:55;;;;;;;3.75;1.90;;;15.50;99.90;;;;;;5030614;28;20037;-49
2022/08/29 05:50:22;;;;;;;4.53;3.08;;;15.60;99.90;;;;;;5030670;28;20038;-49
2022/08/29 05:52:49;;;;;;;3.85;2.70;;;15.60;99.90;;;;;;5031672;28;20045;-49
2022/08/29 05:55:16;;;;;;;3.80;2.38;;;15.60;99.90;;;;;;5030732;28;20056;-48
2022/08/29 05:57:43;;;;;;;6.68;2.88;;;15.70;99.90;;;;;;5032215;28;20048;-49
2022/08/29 06:00:11;;;;;;;3.10;2.17;;;15.80;99.90;;;;;;5030926;28;20033;-49
2022/08/29 06:02:38;;;;;;;4.65;2.53;;;15.80;99.90;;;;;;5031894;28;20559;-50
2022/08/29 06:05:05;;;;;;;6.30;2.28;;;15.90;99.90;;;;;;5031714;28;20072;-48
2022/08/29 06:07:34;;;;;;;2.60;2.08;;;15.90;99.90;;;;;;5027696;28;20046;-49
2022/08/29 06:10:05;;;;;;;3.42;2.53;;;15.90;99.90;;;;;;5027940;28;20518;-48
2022/08/29 06:12:33;;;;;;;4.10;2.15;;;15.80;99.90;;;;;;5013635;28;20041;-48
2022/08/29 06:15:00;;;;;;;3.67;2.25;;;15.90;99.90;;;;;;5030896;28;20038;-48
2022/08/29 06:17:27;;;;;;;3.83;2.22;;;16.00;99.90;;;;;;5030048;28;20422;-48
2022/08/29 06:19:53;;;;;;;5.28;2.10;;;16.10;99.90;;;;;;5038540;28;20033;-49
2022/08/29 06:22:21;;;;;;;3.92;2.15;;;16.20;99.90;;;;;;5031889;28;20041;-49
2022/08/29 06:24:51;;;;;;;3.42;2.40;;;16.20;99.90;;;;;;5031475;28;20045;-48
2022/08/29 06:27:18;;;;;;;3.53;2.03;;;16.20;99.90;;;;;;5029684;28;20049;-49
2022/08/29 06:29:45;;;;;;;2.50;2.05;;;16.20;99.90;;;;;;5031573;28;20053;-48
2022/08/29 06:32:12;;;;;;;3.60;2.10;;;16.20;99.90;;;;;;5030648;28;20041;-50
2022/08/29 06:34:39;;;;;;;3.83;2.45;;;16.20;99.90;;;;;;5030799;28;20441;-52
2022/08/29 06:37:06;;;;;;;5.82;2.20;;;16.40;99.90;;;;;;5031158;28;20056;-49
2022/08/29 06:39:33;;;;;;;3.25;2.45;;;16.50;99.90;;;;;;5031370;28;20044;-48
2022/08/29 06:42:00;;;;;;;4.68;2.30;;;16.70;99.90;;;;;;5030673;28;20045;-50
2022/08/29 06:44:29;;;;;;;5.03;2.63;;;16.90;99.90;;;;;;5030923;28;20045;-50
2022/08/29 06:46:57;;;;;;;2.95;2.35;;;17.10;99.90;;;;;;5030252;28;20056;-49
2022/08/29 06:49:24;;;;;;;3.78;2.33;;;17.30;99.90;;;;;;5031358;28;20042;-49
2022/08/29 06:51:52;;;;;;;2.78;2.42;;;17.40;99.90;;;;;;5030488;28;20037;-48
2022/08/29 06:54:26;;;;;;;3.95;2.05;;;17.50;99.90;;;;;;5031054;28;20133;-47
2022/08/29 06:56:55;;;;;;;4.85;2.10;;;17.70;99.90;;;;;;5022994;28;20045;-49
2022/08/29 06:59:21;;;;;;;2.83;2.25;;;17.70;99.90;;;;;;5030997;28;20038;-47
2022/08/29 07:01:48;;;;;;;3.75;2.08;;;17.80;99.90;;;;;;5030820;28;20045;-48
2022/08/29 07:04:15;;;;;;;2.67;1.80;;;18.00;99.90;;;;;;5020828;28;20139;-49
2022/08/29 07:06:47;;;;;;;3.50;1.98;;;18.00;99.90;;;;;;5008220;28;20053;-48
2022/08/29 07:09:14;;;;;;;3.38;1.88;;;18.10;99.90;;;;;;5027893;28;20042;-48
2022/08/29 07:11:41;;;;;;;5.53;2.20;;;18.20;99.90;;;;;;5025196;28;20517;-49
2022/08/29 07:14:09;;;;;;;11.00;2.30;;;18.30;99.90;;;;;;5028674;28;20088;-49
2022/08/29 07:16:37;;;;;;;5.82;2.08;;;18.40;99.90;;;;;;5029394;28;20103;-48
2022/08/29 07:19:05;;;;;;;7.82;2.00;;;18.40;99.90;;;;;;5030426;28;20064;-47
2022/08/29 07:21:32;;;;;;;3.00;1.80;;;18.40;99.90;;;;;;5025585;28;20033;-48
2022/08/29 07:23:59;;;;;;;3.60;1.70;;;18.50;99.90;;;;;;5029403;28;20033;-49
2022/08/29 07:26:35;;;;;;;1.98;1.73;;;18.60;99.90;;;;;;5032708;28;20049;-49
2022/08/29 07:29:05;;;;;;;4.47;1.77;;;18.80;99.90;;;;;;5034216;28;20037;-48
2022/08/29 07:31:33;;;;;;;2.22;1.75;;;18.90;99.90;;;;;;5032884;28;20050;-49
2022/08/29 07:33:59;;;;;;;;;;;19.10;99.90;;;;;;5029788;28;20041;-48
2022/08/29 07:36:30;;;;;;;4.53;1.90;;;19.10;99.90;;;;;;5034686;28;19927;-48
2022/08/29 07:38:57;;;;;;;6.18;1.85;;;19.20;99.90;;;;;;5034673;28;20060;-49
2022/08/29 07:41:24;;;;;;;1.95;1.52;;;19.10;99.90;;;;;;5033019;28;20097;-50
2022/08/29 07:43:51;;;;;;;2.13;1.67;;;19.20;99.90;;;;;;5034236;28;20041;-48
2022/08/29 07:46:19;;;;;;;2.85;2.05;;;19.30;99.90;;;;;;5032672;28;20085;-48
2022/08/29 07:48:46;;;;;;;3.85;1.67;;;19.40;99.90;;;;;;5028569;28;20113;-48
2022/08/29 07:51:16;;;;;;;3.35;2.03;;;19.60;99.90;;;;;;5033696;28;20398;-48
2022/08/29 07:53:44;;;;;;;2.35;1.60;;;19.70;99.90;;;;;;5033959;28;20044;-50
2022/08/29 07:56:16;;;;;;;3.78;2.08;;;19.80;99.90;;;;;;5014920;28;20092;-49
2022/08/29 07:58:43;;;;;;;4.18;1.98;;;19.80;99.90;;;;;;5034307;28;20052;-48
2022/08/29 08:01:10;;;;;;;2.40;1.85;;;19.90;99.90;;;;;;5033208;28;20453;-48
2022/08/29 08:03:48;;;;;;;4.95;2.03;;;19.90;99.90;;;;;;5034144;28;20072;-49
2022/08/29 08:06:18;;;;;;;3.67;1.80;;;20.00;99.90;;;;;;5033078;28;20042;-49
2022/08/29 08:08:45;;;;;;;4.18;2.00;;;20.10;99.90;;;;;;5028486;28;20533;-47
2022/08/29 08:11:12;;;;;;;3.63;1.98;;;20.10;99.90;;;;;;5053900;28;20037;-48
2022/08/29 08:13:39;;;;;;;;;;;20.20;99.90;;;;;;5053121;28;20048;-48
2022/08/29 08:16:19;;;;;;;3.25;2.05;;;20.30;99.90;;;;;;5047176;28;19920;-49
2022/08/29 08:18:46;;;;;;;2.10;1.90;;;20.40;99.90;;;;;;5027635;28;20048;-49
2022/08/29 08:21:13;;;;;;;2.88;1.80;;;20.40;99.90;;;;;;5033661;28;20042;-48
2022/08/29 08:23:41;;;;;;;2.97;2.15;;;20.50;99.90;;;;;;5033869;28;20149;-48
2022/08/29 08:26:10;;;;;;;5.35;2.20;;;20.80;99.90;;;;;;5032676;28;20099;-49
2022/08/29 08:28:39;;;;;;;6.82;2.30;;;20.90;99.90;;;;;;5033825;28;20045;-49
2022/08/29 08:31:08;;;;;;;3.72;2.03;;;21.00;99.90;;;;;;5033369;28;20049;-48
2022/08/29 08:33:39;;;;;;;2.20;1.83;;;21.10;99.90;;;;;;5033040;28;20042;-48
2022/08/29 08:36:19;;;;;;;3.53;2.28;;;21.20;99.90;;;;;;5030925;28;20056;-50
2022/08/29 08:38:48;;;;;;;3.85;1.90;;;21.20;99.90;;;;;;5033016;28;20037;-48
2022/08/29 08:41:32;;;;;;;6.70;1.85;;;21.30;99.90;;;;;;5032369;28;20045;-51
2022/08/29 08:44:06;;;;;;;2.13;1.92;;;21.40;99.90;;;;;;5031967;28;20045;-50
2022/08/29 08:46:46;;;;;;;3.53;2.00;;;21.50;99.90;;;;;;5025676;28;20049;-50
2022/08/29 08:49:38;;;;;;;3.72;2.15;;;21.60;99.90;;;;;;5033459;28;20042;-51
2022/08/29 08:52:11;;;;;;;3.28;1.83;;;21.60;99.90;;;;;;5032781;28;20045;-49
2022/08/29 08:54:47;;;;;;;3.53;2.30;;;21.60;99.90;;;;;;5033090;28;20045;-49
2022/08/29 08:57:14;;;;;;;3.25;1.98;;;21.80;99.90;;;;;;5032236;28;20103;-49
2022/08/29 08:59:44;;;;;;;3.58;2.10;;;21.90;99.90;;;;;;5033472;28;20109;-50
2022/08/29 09:02:11;;;;;;;2.80;2.08;;;21.90;99.90;;;;;;5030909;28;20046;-50
2022/08/29 09:05:02;;;;;;;2.63;2.17;;;22.00;99.90;;;;;;5032890;28;20057;-49
2022/08/29 09:08:00;;;;;;;2.85;2.40;;;22.20;99.90;;;;;;5031559;28;20045;-51
2022/08/29 09:10:47;;;;;;;7.75;2.05;;;22.20;99.90;;;;;;5025320;28;20049;-50
2022/08/29 09:13:41;;;;;;;3.08;1.80;;;22.30;99.90;;;;;;5031911;28;20068;-49
2022/08/29 09:16:18;;;;;;;2.30;2.10;;;22.40;99.90;;;;;;5032239;28;20060;-49
2022/08/29 09:18:45;;;;;;;3.80;2.20;;;22.50;99.90;;;;;;5011135;28;20050;-48
2022/08/29 09:21:22;;;;;;;3.17;2.53;;;22.50;99.90;;;;;;5013376;28;20140;-48
2022/08/29 09:24:14;;;;;;;4.03;2.10;;;22.70;99.90;;;;;;5031305;28;20045;-48
2022/08/29 09:26:41;;;;;;;4.00;2.38;;;22.60;99.90;;;;;;5032990;28;20049;-49
2022/08/29 09:29:10;;;;;;;4.35;2.25;;;22.50;99.90;;;;;;5031690;28;20159;-48
2022/08/29 09:31:37;;;;;;;3.28;2.13;;;22.30;99.90;;;;;;5014992;28;20050;-49
2022/08/29 09:34:07;;;;;;;2.45;2.17;;;22.20;99.90;;;;;;5031654;28;20073;-49
2022/08/29 09:36:43;;;;;;;3.67;2.33;;;22.30;99.90;;;;;;5032894;28;20046;-50
2022/08/29 09:39:19;;;;;;;3.05;2.75;;;22.40;99.90;;;;;;5032577;28;20069;-49
2022/08/29 09:41:53;;;;;;;4.93;2.40;;;22.40;99.90;;;;;;5031761;28;20071;-50
2022/08/29 09:44:27;;;;;;;5.93;2.30;;;22.60;99.90;;;;;;5024416;28;20045;-49
2022/08/29 09:47:09;;;;;;;3.15;2.55;;;22.60;99.90;;;;;;5031029;28;20490;-49
2022/08/29 09:49:38;;;;;;;2.58;2.15;;;22.70;99.90;;;;;;5031720;28;20056;-48
2022/08/29 09:52:14;;;;;;;2.60;2.28;;;22.80;99.90;;;;;;5031005;28;20041;-49
2022/08/29 09:54:42;;;;;;;3.17;2.15;;;22.80;99.90;;;;;;5031466;28;20387;-49
2022/08/29 09:57:17;;;;;;;4.35;2.17;;;22.80;99.90;;;;;;5030702;28;20037;-50
2022/08/29 09:59:48;;;;;;;2.50;2.30;;;22.80;99.90;;;;;;5032205;28;20041;-49
2022/08/29 10:02:31;;;;;;;2.92;2.30;;;22.80;99.90;;;;;;5032056;28;20037;-49
2022/08/29 10:05:06;;;;;;;3.70;1.90;;;22.80;99.90;;;;;;5031446;28;20552;-49
2022/08/29 10:07:47;;;;;;;4.00;2.13;;;22.90;99.90;;;;;;5022090;28;20127;-50
2022/08/29 10:10:18;;;;;;;4.32;1.95;;;22.90;99.90;;;;;;5021068;28;20041;-49
2022/08/29 10:13:10;;;;;;;2.40;2.13;;;22.90;99.90;;;;;;5031924;28;20042;-49
2022/08/29 10:16:19;;;;;;;2.28;2.08;;;22.90;99.90;;;;;;5029729;28;20041;-50
2022/08/29 10:18:51;;;;;;;2.28;1.95;;;22.60;99.90;;;;;;5025646;28;20199;-49
2022/08/29 10:21:46;;;;;;;2.45;2.17;;;22.90;99.90;;;;;;5031594;28;20044;-50
2022/08/29 10:24:31;;;;;;;3.10;2.10;;;23.10;99.90;;;;;;5030090;28;20429;-48
2022/08/29 10:27:11;;;;;;;3.78;1.90;;;23.20;99.90;;;;;;5031600;28;20402;-49
2022/08/29 10:29:38;;;;;;;3.67;2.28;;;23.00;99.90;;;;;;5031957;28;20049;-49
2022/08/29 10:32:05;;;;;;;5.47;2.17;;;23.30;99.90;;;;;;5027350;28;20053;-50
2022/08/29 10:34:53;;;;;;;3.08;2.53;;;23.50;99.90;;;;;;5030666;28;20041;-52
2022/08/29 10:37:33;;;;;;;3.35;1.88;;;23.80;99.90;;;;;;5031416;28;20045;-50
2022/08/29 10:40:13;;;;;;;2.83;2.45;;;24.00;99.90;;;;;;5030417;28;20405;-49
2022/08/29 10:42:44;;;;;;;3.60;2.30;;;23.80;99.90;;;;;;5031684;28;20061;-48
2022/08/29 10:45:24;;;;;;;6.43;2.55;;;23.80;99.90;;;;;;5030394;28;20053;-49
2022/08/29 10:48:00;;;;;;;3.42;1.98;;;23.80;99.90;;;;;;5031283;28;20053;-52
2022/08/29 10:50:34;;;;;;;3.38;2.30;;;23.90;99.90;;;;;;5031074;28;20045;-50
2022/08/29 10:53:33;;;;;;;3.03;2.50;;;24.10;99.90;;;;;;5031059;28;20075;-49
2022/08/29 10:56:18;;;;;;;7.80;2.83;;;24.20;99.90;;;;;;5024035;28;20060;-49
2022/08/29 10:58:54;;;;;;;2.95;2.45;;;24.00;99.90;;;;;;5024904;28;20041;-49
2022/08/29 11:01:39;;;;;;;4.50;2.53;;;24.00;99.90;;;;;;5030059;28;20457;-49
2022/08/29 11:04:41;;;;;;;3.22;2.65;;;24.10;99.90;;;;;;5027804;28;20079;-49
2022/08/29 11:07:26;;;;;;;3.20;2.80;;;24.40;99.90;;;;;;5023144;28;20512;-49
2022/08/29 11:10:02;;;;;;;3.45;3.08;;;24.30;99.90;;;;;;5031249;28;20045;-49
2022/08/29 11:13:04;;;;;;;2.95;2.58;;;24.30;99.90;;;;;;5030026;28;20494;-49
2022/08/29 11:15:45;;;;;;;3.25;2.70;;;24.30;99.90;;;;;;5030638;28;20509;-49
2022/08/29 11:18:30;;;;;;;4.53;2.70;;;24.50;99.90;;;;;;5030462;28;20132;-49
2022/08/29 11:21:02;;;;;;;6.10;4.03;;;24.30;99.90;;;;;;5030275;28;20040;-50
2022/08/29 11:23:41;;;;;;;2.65;2.42;;;24.20;99.90;;;;;;5030737;28;20048;-50
2022/08/29 11:26:15;;;;;;;7.28;2.80;;;24.20;99.90;;;;;;5031185;28;20056;-49
2022/08/29 11:28:53;;;;;;;4.30;2.17;;;24.20;99.90;;;;;;5030681;28;20064;-49
2022/08/29 11:31:41;;;;;;;5.32;2.55;;;24.20;99.90;;;;;;5005589;28;20041;-49
2022/08/29 11:34:30;;;;;;;3.15;2.65;;;24.40;99.90;;;;;;5030787;28;20073;-49
2022/08/29 11:37:36;;;;;;;3.13;2.80;;;24.60;99.90;;;;;;5030119;28;20049;-49
2022/08/29 11:40:28;;;;;;;4.03;2.88;;;24.50;99.90;;;;;;5012273;28;20050;-50
2022/08/29 11:43:47;;;;;;;6.90;3.15;;;24.70;99.90;;;;;;4979252;28;20134;-51
2022/08/29 11:50:33;;;;;;;6.13;3.55;;;24.50;99.90;;;;;;4982776;28;20125;-50
2022/08/29 11:53:12;;;;;;;4.18;3.40;;;24.40;99.90;;;;;;4990935;28;20049;-51
2022/08/29 11:56:03;;;;;;;8.40;3.95;;;24.30;99.90;;;;;;4991079;28;20043;-50
2022/08/29 11:58:35;;;;;;;4.32;3.25;;;24.20;99.90;;;;;;4999080;28;20085;-51
2022/08/29 12:01:01;;;;;;;4.53;3.38;;;24.30;99.90;;;;;;4991353;28;20113;-52
2022/08/29 12:03:31;;;;;;;5.13;4.10;;;24.40;99.90;;;;;;4988858;28;20093;-54
2022/08/29 12:06:20;;;;;;;4.18;3.20;;;24.40;99.90;;;;;;5002322;28;20046;-50
2022/08/29 12:08:56;;;;;;;4.93;3.55;;;24.50;99.90;;;;;;5010144;28;20501;-51
2022/08/29 12:11:58;;;;;;;4.97;3.80;;;24.60;99.90;;;;;;5011963;28;20046;-50
2022/08/29 12:14:41;;;;;;;5.57;3.50;;;24.60;99.90;;;;;;5006581;28;20069;-50
2022/08/29 12:17:11;;;;;;;5.18;3.83;;;24.60;99.90;;;;;;5014431;28;20038;-51
2022/08/29 12:19:46;;;;;;;5.72;3.97;;;24.50;99.90;;;;;;5014185;28;20429;-51
2022/08/29 12:22:50;;;;;;;5.47;4.30;;;24.40;99.90;;;;;;5006056;28;20049;-52
2022/08/29 12:25:26;;;;;;;5.25;3.95;;;24.50;99.90;;;;;;5013557;28;20046;-50
2022/08/29 12:28:11;;;;;;;6.90;4.20;;;24.40;99.90;;;;;;5011960;28;20254;-51
2022/08/29 12:30:42;;;;;;;7.18;3.83;;;24.40;99.90;;;;;;4986279;28;20058;-52
2022/08/29 12:33:35;;;;;;;7.60;4.20;;;24.40;99.90;;;;;;5010977;28;20383;-49
2022/08/29 12:36:41;;;;;;;7.18;4.18;;;24.50;99.90;;;;;;5013703;28;20077;-50
2022/08/29 12:39:26;;;;;;;5.90;4.30;;;24.50;99.90;;;;;;5010302;28;20068;-51
2022/08/29 12:42:12;;;;;;;6.60;4.28;;;24.50;99.90;;;;;;5012601;28;20422;-51
2022/08/29 12:44:56;;;;;;;6.50;4.25;;;24.50;99.90;;;;;;5005863;28;20072;-54
2022/08/29 12:47:32;;;;;;;5.68;4.32;;;24.60;99.90;;;;;;5002996;28;20057;-50
2022/08/29 12:50:04;;;;;;;5.50;4.18;;;24.70;99.90;;;;;;5013821;28;20056;-51
2022/08/29 12:52:37;;;;;;;6.75;4.15;;;24.80;99.90;;;;;;5013488;28;20111;-53
2022/08/29 12:55:43;;;;;;;9.45;4.10;;;24.80;99.90;;;;;;5013732;28;20042;-52
2022/08/29 12:58:12;;;;;;;4.57;4.07;;;24.70;99.90;;;;;;4979813;28;20057;-52
2022/08/29 13:00:40;;;;;;;5.30;3.92;;;24.80;99.90;;;;;;5013265;28;20108;-50
2022/08/29 13:03:19;;;;;;;7.88;4.53;;;24.80;99.90;;;;;;5012663;28;20116;-50
2022/08/29 13:05:47;;;;;;;7.53;4.50;;;24.70;99.90;;;;;;4991479;28;20080;-51
2022/08/29 13:08:29;;;;;;;7.45;4.40;;;24.60;99.90;;;;;;5013321;28;20095;-51
2022/08/29 13:10:59;;;;;;;6.47;4.00;;;24.60;99.90;;;;;;5013179;28;20270;-54
2022/08/29 13:13:28;;;;;;;10.07;4.97;;;24.70;99.90;;;;;;5005640;28;20054;-51
2022/08/29 13:16:01;;;;;;;7.03;4.97;;;24.60;99.90;;;;;;5012456;28;20068;-51
2022/08/29 13:18:29;;;;;;;8.00;4.97;;;24.60;99.90;;;;;;5012971;28;20510;-52
2022/08/29 13:21:32;;;;;;;8.15;4.57;;;24.60;99.90;;;;;;4997247;28;20384;-50
2022/08/29 13:24:08;;;;;;;7.28;5.07;;;24.60;99.90;;;;;;4931606;29;20048;-52